Mount Carroll, IL

5:47 AM CST on January 16, 2017 (GMT -0600)
Aspen Drive | | Change Station
Active Advisory: Winter Weather Advisory

Elev 810 ft 42.09 °N, 89.98 °W | Updated 2 minutes ago

Ice Pellets
Ice Pellets
31.5 °F
Feels Like 32 °F
N
1.0
Wind Variable Wind from ESE
Gusts 1.0 mph

Today
High -- | Low -- °F
--% Chance of Precip.
Yesterday
High -- | Low -- °F
Precip. -- in
Pressure 30.24 in
Visibility 3.0 miles
Clouds Scattered Clouds 1500 ft
Overcast 3100 ft
Windchill 32 °F
Dew Point 29 °F
Humidity 91%
Rainfall 0.07 in
Snow Depth Not available.
7:25 AM 4:54 PM
Waning Gibbous, 81% visible
METAR KSFY 161135Z AUTO 07003KT 3SM DZ SCT015 OVC031 00/M01 A3024 RMK AO2 T10011010
Pressure 30.24 in
Visibility 3.0 miles
Clouds Scattered Clouds 1500 ft
Overcast 3100 ft
Windchill 32 °F
Dew Point 29 °F
Humidity 91%
Rainfall 0.07 in
Snow Depth Not available.
7:25 AM 4:54 PM
Waning Gibbous, 81% visible
METAR KSFY 161135Z AUTO 07003KT 3SM DZ SCT015 OVC031 00/M01 A3024 RMK AO2 T10011010

Get Your Daily Forecast Email!

Thanks for signing up!

Be on the lookout for a verification email in your inbox.

You'll start receiving the daily forecast at 8 AM.

×

10-Day Weather Forecast

Almanac

Astronomy

Jan. 16, 2017 Rise Set
Actual Time
Civil Twilight
Nautical Twilight
Astronomical Twilight
Moon
Length of Visible Light
Length of Day
Tomorrow will be .
, % of the Moon is Illuminated

Today's Extremes

State Highs State Lows

Community

WunderPhotos

Upload Photos

1,962,540 photos uploaded!

WunderBlog® & News

Nearby

Air Quality

  Air Quality AQ Index Pollutant
Not available.

Snow Depth

Station Depth Elevation

Earthquake Activity

City Distance Mag. Time & Date
Minimum magnitude displayed is 2.5.

Coastal Water Temperatures

Place Temperature

Stations

Nearby Weather Stations

Station Location Temp. Windchill Dew Point Humidity Wind Precip. Elev Updated Type
                   

Watches & Warnings

Winter Weather Advisory
Issued: 4:24 AM CST Jan. 16, 2017 – National Weather Service

... Winter Weather Advisory remains in effect until noon CST
today...

* timing... late tonight through Monday morning.

* Ice accumulations... around a tenth of an inch.

* Sleet accumulations... little to none.

* Wind... east 5 to 10 mph.

* Temperatures... in the lower 30s.

* Impacts... untreated roads and sidewalks will become ice coated
and very hazardous.

Precautionary/preparedness actions...

A Winter Weather Advisory means that periods of snow... sleet...
or freezing rain will cause travel difficulties. Be prepared for
slippery roads and limited visibilities... and use caution while
driving.